Time;durP1;ratioP1;P1;durP2;ratioP2;P2;SDS_P1;SDS_P2;PMS_P1;PMS_P2;Temp;Humidity;BMP_temperature;BMP_pressure;BME280_temperature;BME280_humidity;BME280_pressure;Samples;Min_cycle;Max_cycle;Signal;HPM_P1;HPM_P2
2024/04/03 00:02:09;;;;;;;2.62;0.70;;;;;;;10.80;53.95;98800.00;4321381;33;33611;-86
2024/04/03 00:04:37;;;;;;;1.80;0.75;;;;;;;11.30;52.50;98804.56;4313252;33;34374;-86
2024/04/03 00:07:03;;;;;;;1.92;0.70;;;;;;;11.48;52.05;98803.72;4301904;33;34282;-86
2024/04/03 00:09:30;;;;;;;1.37;0.60;;;;;;;11.09;53.00;98806.19;4302063;33;33576;-87
2024/04/03 00:11:57;;;;;;;1.62;0.68;;;;;;;11.26;52.51;98805.41;4303051;33;34863;-86
2024/04/03 00:14:23;;;;;;;1.25;0.50;;;;;;;11.16;53.09;98799.31;4300482;33;33360;-86
2024/04/03 00:16:50;;;;;;;2.08;0.65;;;;;;;10.83;54.02;98798.25;4302353;33;33206;-86
2024/04/03 00:19:17;;;;;;;1.95;0.80;;;;;;;10.86;53.80;98797.41;4313066;33;34009;-86
2024/04/03 00:21:43;;;;;;;2.97;0.90;;;;;;;11.33;52.63;98802.84;4314831;33;33917;-84
2024/04/03 00:24:10;;;;;;;1.67;0.70;;;;;;;11.13;53.14;98797.53;4315544;33;33034;-86
2024/04/03 00:26:36;;;;;;;1.65;0.60;;;;;;;11.17;52.79;98798.44;4308964;33;33721;-86
2024/04/03 00:29:04;;;;;;;2.10;0.70;;;;;;;11.03;52.97;98800.97;4315757;33;34316;-87
2024/04/03 00:31:30;;;;;;;1.37;0.70;;;;;;;10.85;53.41;98800.88;4315448;33;34371;-85
2024/04/03 00:33:57;;;;;;;5.57;0.82;;;;;;;11.32;52.08;98789.84;4315636;33;34107;-85
2024/04/03 00:36:24;;;;;;;1.60;0.70;;;;;;;11.44;52.93;98795.09;4293104;33;33121;-85
2024/04/03 00:38:50;;;;;;;3.00;0.85;;;;;;;11.47;53.31;98802.00;4316174;33;33767;-86
2024/04/03 00:41:18;;;;;;;1.70;0.60;;;;;;;11.48;51.75;98803.72;4316422;33;33974;-86
2024/04/03 00:43:44;;;;;;;1.48;0.60;;;;;;;11.58;52.35;98801.19;4306603;33;34931;-85
2024/04/03 00:46:12;;;;;;;3.25;0.70;;;;;;;10.85;53.56;98796.56;4311338;33;34404;-84
2024/04/03 00:48:39;;;;;;;2.00;0.60;;;;;;;11.18;52.65;98790.66;4298663;33;33148;-85
2024/04/03 00:51:06;;;;;;;1.52;0.55;;;;;;;11.26;54.66;98793.28;4315222;33;34969;-85
2024/04/03 00:53:33;;;;;;;2.85;0.80;;;;;;;11.31;54.03;98785.53;4295803;33;34951;-85
2024/04/03 00:56:00;;;;;;;1.65;0.60;;;;;;;11.27;54.29;98786.38;4306704;33;34730;-85
2024/04/03 00:58:26;;;;;;;1.50;0.68;;;;;;;11.33;54.66;98794.19;4326588;33;33819;-84
2024/04/03 01:00:53;;;;;;;1.75;0.82;;;;;;;11.44;54.62;98795.97;4318677;33;34716;-85
2024/04/03 01:03:21;;;;;;;3.05;0.90;;;;;;;11.45;54.35;98789.03;4292382;33;34070;-86
2024/04/03 01:06:00;;;;;;;1.45;0.60;;;;;;;11.06;54.65;98790.63;4315899;33;33578;-86
2024/04/03 01:08:28;;;;;;;2.55;0.70;;;;;;;11.20;55.16;98788.94;4308960;33;33370;-86
2024/04/03 01:10:56;;;;;;;1.52;0.60;;;;;;;11.07;55.40;98792.34;4296992;33;33721;-84
2024/04/03 01:13:23;;;;;;;1.25;0.62;;;;;;;11.14;55.11;98788.06;4316692;33;34242;-85
2024/04/03 01:16:08;;;;;;;1.70;0.70;;;;;;;11.20;54.99;98793.25;4311013;33;33940;-86
2024/04/03 01:18:35;;;;;;;2.15;0.77;;;;;;;10.47;56.15;98801.50;4327580;33;33409;-85
2024/04/03 01:21:02;;;;;;;1.35;0.60;;;;;;;10.76;56.14;98798.22;4308790;33;33958;-85
2024/04/03 01:23:29;;;;;;;1.52;0.60;;;;;;;10.96;55.53;98794.88;4315453;33;34415;-86
2024/04/03 01:25:55;;;;;;;2.47;0.60;;;;;;;10.84;55.53;98786.19;4311105;33;34570;-86
2024/04/03 01:28:23;;;;;;;1.80;0.90;;;;;;;10.70;56.18;98786.09;4311409;33;33924;-84
2024/04/03 01:30:50;;;;;;;4.07;0.73;;;;;;;10.81;56.02;98789.63;4305964;33;32697;-84
2024/04/03 01:33:16;;;;;;;4.00;0.90;;;;;;;10.82;55.90;98787.88;4303959;33;34014;-86
2024/04/03 01:35:43;;;;;;;4.55;0.80;;;;;;;10.70;56.27;98792.13;4288886;33;33304;-85
2024/04/03 01:38:10;;;;;;;1.95;0.70;;;;;;;10.59;56.44;98783.44;4323389;33;34171;-86
2024/04/03 01:40:36;;;;;;;2.12;0.82;;;;;;;10.53;56.44;98790.28;4324754;33;34779;-86
2024/04/03 01:43:03;;;;;;;2.92;0.75;;;;;;;10.53;56.49;98786.00;4325661;33;35049;-86
2024/04/03 01:45:30;;;;;;;2.12;0.80;;;;;;;10.56;56.46;98785.12;4293929;33;32400;-85
2024/04/03 01:47:56;;;;;;;1.40;0.77;;;;;;;10.45;56.84;98785.94;4294730;33;33851;-86
2024/04/03 01:50:36;;;;;;;2.28;0.70;;;;;;;10.38;56.75;98773.78;4320027;33;34216;-86
2024/04/03 01:53:02;;;;;;;3.15;0.90;;;;;;;10.52;56.35;98776.47;4308983;33;34297;-84
2024/04/03 01:55:29;;;;;;;2.42;0.68;;;;;;;10.44;56.25;98772.97;4318575;33;33802;-85
2024/04/03 01:57:55;;;;;;;2.03;0.60;;;;;;;10.23;56.91;98773.66;4311213;33;33154;-86
2024/04/03 02:00:23;;;;;;;1.95;0.68;;;;;;;9.81;58.42;98781.87;4319058;33;33549;-87
2024/04/03 02:02:50;;;;;;;2.20;0.70;;;;;;;10.07;57.14;98783.00;4313594;33;34157;-86
2024/04/03 02:05:16;;;;;;;1.62;0.60;;;;;;;9.96;57.89;98785.50;4318126;33;34228;-86
2024/04/03 02:07:43;;;;;;;4.62;0.90;;;;;;;9.88;57.90;98778.50;4307197;33;33158;-86
2024/04/03 02:10:09;;;;;;;2.78;0.80;;;;;;;10.03;56.85;98777.78;4312424;33;33946;-85
2024/04/03 02:12:36;;;;;;;1.50;0.70;;;;;;;9.80;58.28;98774.97;4322564;33;35290;-86
2024/04/03 02:15:03;;;;;;;3.00;0.77;;;;;;;9.58;59.08;98781.66;4320265;33;33991;-86
2024/04/03 02:17:30;;;;;;;2.10;0.80;;;;;;;9.78;59.14;98785.34;4325277;33;33254;-86
2024/04/03 02:19:56;;;;;;;3.62;0.73;;;;;;;9.84;58.44;98784.50;4317491;33;33705;-86
2024/04/03 02:22:23;;;;;;;1.02;0.60;;;;;;;9.89;58.88;98788.91;4307120;33;34285;-86
2024/04/03 02:24:49;;;;;;;3.83;1.35;;;;;;;9.73;59.44;98787.84;4300875;33;32652;-86
2024/04/03 02:27:16;;;;;;;1.50;0.70;;;;;;;9.89;59.12;98785.44;4314258;33;33451;-84
2024/04/03 02:29:42;;;;;;;1.92;0.70;;;;;;;9.88;58.85;98786.28;4309723;33;33733;-84
2024/04/03 02:32:09;;;;;;;2.08;1.20;;;;;;;10.06;58.49;98781.25;4311950;33;33707;-86
2024/04/03 02:34:36;;;;;;;3.08;0.70;;;;;;;10.06;58.44;98780.41;4320067;33;33582;-86
2024/04/03 02:37:02;;;;;;;1.50;0.60;;;;;;;10.02;58.73;98779.50;4319337;33;33673;-86
2024/04/03 02:39:30;;;;;;;1.45;0.60;;;;;;;10.07;58.33;98777.81;4318740;33;34123;-86
2024/04/03 02:41:56;;;;;;;1.98;0.82;;;;;;;9.98;58.21;98777.75;4296691;33;34087;-84
2024/04/03 02:44:23;;;;;;;2.00;0.80;;;;;;;10.05;58.01;98779.53;4305676;33;33522;-86
2024/04/03 02:46:49;;;;;;;1.58;0.70;;;;;;;10.01;58.30;98775.19;4309198;33;33343;-86
2024/04/03 02:49:17;;;;;;;3.28;0.90;;;;;;;10.16;57.71;98777.03;4314919;33;34337;-86
2024/04/03 02:51:43;;;;;;;1.95;0.68;;;;;;;10.11;57.65;98771.81;4314288;33;33788;-86
2024/04/03 02:54:10;;;;;;;1.62;0.77;;;;;;;10.08;57.49;98782.16;4320844;33;33934;-87
2024/04/03 02:56:36;;;;;;;2.83;0.70;;;;;;;10.05;57.31;98776.94;4300709;33;33212;-87
2024/04/03 02:59:03;;;;;;;3.80;0.90;;;;;;;10.15;56.91;98783.06;4327713;33;33880;-87
2024/04/03 03:01:30;;;;;;;2.50;1.00;;;;;;;9.86;57.62;98783.69;4309382;33;34005;-85
2024/04/03 03:03:57;;;;;;;2.80;1.10;;;;;;;9.87;57.60;98779.38;4329125;33;33608;-85
2024/04/03 03:06:23;;;;;;;3.03;0.90;;;;;;;9.96;57.44;98779.44;4324340;33;33483;-85
2024/04/03 03:08:50;;;;;;;2.95;0.77;;;;;;;9.91;57.52;98781.13;4315008;33;34110;-85
2024/04/03 03:11:17;;;;;;;1.95;0.70;;;;;;;9.66;58.39;98791.25;4302443;33;34270;-86
2024/04/03 03:13:43;;;;;;;3.40;0.90;;;;;;;9.67;58.46;98787.81;4317343;33;34174;-85
2024/04/03 03:16:10;;;;;;;1.40;0.60;;;;;;;9.57;59.03;98793.75;4305385;33;34359;-86
2024/04/03 03:18:36;;;;;;;2.53;0.90;;;;;;;9.82;58.26;98791.41;4315263;33;33470;-86
2024/04/03 03:21:03;;;;;;;2.30;0.82;;;;;;;9.59;58.84;98789.47;4314925;33;34298;-85
2024/04/03 03:23:30;;;;;;;1.85;0.93;;;;;;;9.36;59.37;98789.22;4325556;33;34799;-86
2024/04/03 03:25:56;;;;;;;3.12;0.98;;;;;;;9.58;59.18;98797.19;4316850;33;33480;-85
2024/04/03 03:28:23;;;;;;;1.92;0.60;;;;;;;9.50;59.42;98794.53;4307464;33;34776;-86
2024/04/03 03:30:52;;;;;;;2.10;0.90;;;;;;;9.80;58.81;98798.28;4321791;33;35113;-87
2024/04/03 03:33:19;;;;;;;2.55;0.90;;;;;;;9.61;59.45;98800.69;4321586;33;32744;-86
2024/04/03 03:35:56;;;;;;;1.90;0.90;;;;;;;9.51;59.59;98791.09;4316696;33;34443;-86
2024/04/03 03:38:23;;;;;;;3.03;0.88;;;;;;;9.57;59.24;98790.28;4314645;33;34810;-86
2024/04/03 03:40:51;;;;;;;2.12;0.82;;;;;;;9.70;58.60;98797.34;4304365;33;33217;-85
2024/04/03 03:43:18;;;;;;;2.10;0.90;;;;;;;9.55;58.92;98792.00;4321599;33;34042;-86
2024/04/03 03:45:50;;;;;;;2.97;0.93;;;;;;;9.65;58.82;98797.28;4316717;33;33638;-84
2024/04/03 03:48:17;;;;;;;4.50;1.45;;;;;;;9.64;58.62;98800.72;4318174;33;33831;-84
2024/04/03 03:53:32;;;;;;;2.22;0.80;;;;;;;9.12;59.43;98807.88;4303288;33;34682;-86
2024/04/03 03:56:08;;;;;;;2.80;1.00;;;;;;;9.48;58.56;98801.41;4305563;33;33169;-85
2024/04/03 03:58:34;;;;;;;3.90;1.00;;;;;;;9.60;58.46;98809.31;4315104;33;33720;-84
2024/04/03 04:01:04;;;;;;;2.95;1.20;;;;;;;9.29;58.94;98815.84;4307743;33;35127;-86
2024/04/03 04:03:31;;;;;;;3.67;1.30;;;;;;;9.15;59.43;98810.50;4319908;33;34036;-86
2024/04/03 04:06:01;;;;;;;3.40;1.10;;;;;;;9.31;59.11;98808.97;4313271;33;32739;-86
2024/04/03 04:08:27;;;;;;;2.53;0.98;;;;;;;9.30;59.09;98819.31;4302969;33;33379;-85
2024/04/03 04:10:55;;;;;;;2.45;1.27;;;;;;;9.36;58.80;98821.97;4312027;33;33779;-85
2024/04/03 04:13:21;;;;;;;3.78;1.30;;;;;;;9.25;59.19;98822.69;4314051;33;35253;-86
2024/04/03 04:15:48;;;;;;;3.70;1.33;;;;;;;9.17;59.53;98823.47;4306152;33;32942;-87
2024/04/03 04:18:15;;;;;;;3.22;1.20;;;;;;;9.16;59.61;98817.41;4302874;33;34865;-87
2024/04/03 04:20:42;;;;;;;2.90;1.25;;;;;;;9.35;59.01;98822.81;4319328;33;34039;-86
2024/04/03 04:23:08;;;;;;;2.83;1.37;;;;;;;9.14;59.52;98816.53;4324250;33;33921;-87
2024/04/03 04:25:35;;;;;;;6.12;1.92;;;;;;;9.06;59.78;98812.97;4302008;33;34160;-87
2024/04/03 04:28:02;;;;;;;3.40;1.42;;;;;;;8.75;61.21;98812.56;4302018;33;33006;-87
2024/04/03 04:30:28;;;;;;;3.20;1.65;;;;;;;8.87;61.35;98811.00;4302061;33;34417;-86
2024/04/03 04:32:55;;;;;;;3.47;1.40;;;;;;;8.93;61.41;98805.88;4302692;33;34862;-87
2024/04/03 04:35:21;;;;;;;3.08;1.42;;;;;;;9.00;61.41;98798.22;4308064;33;33417;-86
2024/04/03 04:37:48;;;;;;;3.05;1.30;;;;;;;8.97;61.38;98799.91;4308685;33;33665;-87
2024/04/03 04:40:15;;;;;;;4.03;1.40;;;;;;;9.05;61.31;98800.00;4280121;33;34173;-88
2024/04/03 04:42:41;;;;;;;4.40;1.52;;;;;;;9.19;61.18;98794.16;4292884;33;33056;-87
2024/04/03 04:45:08;;;;;;;3.55;1.52;;;;;;;9.10;61.64;98799.22;4312881;33;34435;-87
2024/04/03 04:47:35;;;;;;;5.43;1.80;;;;;;;9.25;61.28;98804.59;4314194;33;34787;-87
2024/04/03 04:50:01;;;;;;;5.53;2.58;;;;;;;9.37;61.34;98785.75;4327657;33;34236;-87
2024/04/03 04:52:28;;;;;;;7.85;3.87;;;;;;;9.65;60.79;98788.63;4313774;33;35572;-87
2024/04/03 04:54:54;;;;;;;4.60;2.08;;;;;;;10.32;59.86;98775.47;4309061;33;34365;-88
2024/04/03 04:57:21;;;;;;;9.13;4.37;;;;;;;11.00;58.49;98780.22;4290322;33;34060;-87
2024/04/03 04:59:47;;;;;;;10.95;5.53;;;;;;;11.29;56.32;98762.16;4317904;33;34071;-87
2024/04/03 05:02:14;;;;;;;11.80;6.28;;;;;;;11.67;55.01;98767.47;4326677;33;34757;-88
2024/04/03 05:04:40;;;;;;;11.77;6.37;;;;;;;12.03;53.68;98772.72;4301824;33;33199;-87
2024/04/03 05:07:07;;;;;;;9.52;5.50;;;;;;;12.36;53.03;98780.53;4294112;33;33324;-87
2024/04/03 05:09:34;;;;;;;11.30;6.43;;;;;;;12.48;52.39;98773.59;4300343;33;34152;-88
2024/04/03 05:12:00;;;;;;;12.88;6.15;;;;;;;12.67;52.04;98772.69;4309508;33;34540;-87
2024/04/03 05:14:27;;;;;;;14.05;7.60;;;;;;;13.14;50.79;98775.16;4300753;33;32792;-88
2024/04/03 05:16:53;;;;;;;15.18;8.30;;;;;;;13.30;49.41;98764.72;4316649;33;34822;-86
2024/04/03 05:19:20;;;;;;;16.40;9.50;;;;;;;13.45;49.28;98759.44;4306497;33;33532;-88
2024/04/03 05:21:46;;;;;;;12.18;7.00;;;;;;;13.57;49.75;98774.97;4316556;33;34734;-87
2024/04/03 05:24:14;;;;;;;15.35;7.97;;;;;;;13.79;48.73;98780.06;4313916;33;34369;-88
2024/04/03 05:26:40;;;;;;;13.77;8.63;;;;;;;13.78;48.43;98773.97;4310624;33;34076;-89
2024/04/03 05:29:06;;;;;;;15.55;9.30;;;;;;;13.90;48.73;98775.63;4309061;33;34643;-88
2024/04/03 05:31:33;;;;;;;32.50;22.45;;;;;;;13.90;48.41;98778.22;4305544;33;34631;-89
2024/04/03 05:34:04;;;;;;;57.75;41.22;;;;;;;13.96;48.05;98774.72;4315299;33;33708;-88
2024/04/03 05:36:30;;;;;;;74.55;54.30;;;;;;;14.02;47.79;98783.38;4319067;33;33971;-89
2024/04/03 05:38:57;;;;;;;63.25;45.88;;;;;;;13.71;48.46;98776.63;4305273;33;33954;-87
2024/04/03 05:41:26;;;;;;;40.03;28.60;;;;;;;13.72;49.33;98779.22;4314709;33;33921;-87
2024/04/03 05:43:53;;;;;;;13.30;3.90;;;;;;;13.48;51.18;98795.84;4313551;33;33595;-87
2024/04/03 05:46:19;;;;;;;10.35;3.70;;;;;;;13.26;48.86;98799.41;4315372;33;33499;-87
2024/04/03 05:48:46;;;;;;;8.63;4.20;;;;;;;13.21;49.57;98801.16;4301975;33;35066;-86
2024/04/03 05:51:13;;;;;;;9.73;4.35;;;;;;;13.10;49.72;98807.25;4300474;33;34760;-88
2024/04/03 05:53:40;;;;;;;11.05;4.28;;;;;;;12.98;50.22;98804.69;4315515;33;33326;-87
2024/04/03 05:56:07;;;;;;;9.43;4.12;;;;;;;12.93;50.33;98801.25;4306067;33;33445;-86
2024/04/03 05:58:34;;;;;;;8.38;4.07;;;;;;;13.00;51.04;98812.50;4306412;33;33400;-86
2024/04/03 06:01:03;;;;;;;7.15;3.40;;;;;;;12.93;50.84;98814.25;4310479;33;34155;-86
2024/04/03 06:03:30;;;;;;;5.10;2.35;;;;;;;12.77;51.54;98813.41;4328184;33;34239;-86
2024/04/03 06:05:58;;;;;;;7.22;2.90;;;;;;;12.41;52.08;98816.91;4318971;33;33243;-86
2024/04/03 06:08:26;;;;;;;6.62;2.17;;;;;;;12.49;52.51;98817.78;4320475;33;34632;-86
2024/04/03 06:10:53;;;;;;;6.60;2.03;;;;;;;12.79;51.75;98809.06;4320431;33;34082;-86
2024/04/03 06:13:20;;;;;;;4.80;1.98;;;;;;;13.14;50.83;98811.59;4322725;33;32628;-88
2024/04/03 06:15:46;;;;;;;5.80;1.92;;;;;;;13.22;50.54;98814.16;4293001;33;33939;-87
2024/04/03 06:18:13;;;;;;;4.45;2.10;;;;;;;13.01;50.47;98811.63;4319733;33;34138;-86
2024/04/03 06:20:40;;;;;;;8.23;2.12;;;;;;;12.64;51.99;98814.28;4304614;33;33986;-89
2024/04/03 06:23:11;;;;;;;6.85;2.62;;;;;;;12.97;50.31;98815.97;4308749;33;34239;-87
2024/04/03 06:25:38;;;;;;;5.12;2.70;;;;;;;12.87;51.32;98804.72;4311961;33;34689;-87
2024/04/03 06:28:05;;;;;;;5.95;2.70;;;;;;;12.75;51.27;98814.28;4311897;33;34159;-87
2024/04/03 06:30:31;;;;;;;5.90;3.00;;;;;;;12.76;51.30;98816.00;4313465;33;33970;-88
2024/04/03 06:32:58;;;;;;;5.55;2.67;;;;;;;12.64;52.30;98814.28;4305694;33;33526;-86
2024/04/03 06:35:25;;;;;;;6.43;2.78;;;;;;;12.75;51.25;98822.09;4309598;33;34074;-85
2024/04/03 06:37:51;;;;;;;5.18;2.75;;;;;;;12.77;51.36;98822.97;4304181;33;33409;-86
2024/04/03 06:40:19;;;;;;;6.50;2.80;;;;;;;12.79;51.55;98823.81;4281972;33;34887;-85
2024/04/03 06:42:45;;;;;;;6.70;3.03;;;;;;;12.94;51.51;98823.78;4313220;33;34344;-85
2024/04/03 06:45:12;;;;;;;7.18;2.92;;;;;;;12.99;51.45;98822.03;4307624;33;34047;-86
2024/04/03 06:47:39;;;;;;;7.72;2.85;;;;;;;12.89;52.40;98822.94;4315326;33;33815;-86
2024/04/03 06:50:05;;;;;;;5.97;2.83;;;;;;;13.07;51.79;98824.63;4315286;33;34011;-87
2024/04/03 06:52:32;;;;;;;6.15;2.83;;;;;;;13.12;51.18;98828.06;4323222;33;34003;-86
2024/04/03 06:54:58;;;;;;;7.70;2.67;;;;;;;13.17;52.02;98826.31;4315022;33;33658;-86
2024/04/03 06:57:25;;;;;;;7.35;2.70;;;;;;;13.39;50.04;98827.16;4295498;33;35125;-85
2024/04/03 06:59:51;;;;;;;7.75;3.47;;;;;;;13.51;50.30;98836.63;4317596;33;33914;-85
2024/04/03 07:02:18;;;;;;;8.93;3.50;;;;;;;13.35;52.89;98836.72;4310542;33;34248;-84
2024/04/03 07:04:45;;;;;;;8.55;3.50;;;;;;;13.45;52.69;98841.87;4309972;33;34679;-87
2024/04/03 07:07:11;;;;;;;7.45;2.97;;;;;;;13.31;52.92;98849.75;4304385;33;33904;-88
2024/04/03 07:09:38;;;;;;;8.23;3.15;;;;;;;13.07;53.29;98841.13;4311863;33;34882;-88
2024/04/03 07:12:05;;;;;;;6.93;2.47;;;;;;;13.61;51.67;98839.19;4313660;33;33502;-88
2024/04/03 07:14:32;;;;;;;5.47;2.40;;;;;;;13.07;53.66;98846.31;4305941;33;32660;-87
2024/04/03 07:16:59;;;;;;;5.68;2.25;;;;;;;13.30;53.00;98842.81;4301682;33;33652;-89
2024/04/03 07:19:25;;;;;;;6.95;2.58;;;;;;;13.39;53.93;98850.56;4302350;33;33643;-86
2024/04/03 07:21:51;;;;;;;5.87;2.20;;;;;;;13.53;52.83;98850.53;4313427;33;33309;-87
2024/04/03 07:24:18;;;;;;;5.45;2.58;;;;;;;13.26;53.47;98864.50;4314341;33;34910;-89
2024/04/03 07:26:46;;;;;;;6.25;2.30;;;;;;;13.43;52.83;98860.09;4317254;33;34697;-89
2024/04/03 07:29:14;;;;;;;4.75;2.62;;;;;;;13.72;52.89;98874.78;4303519;33;32488;-85
2024/04/03 07:31:43;;;;;;;7.78;2.83;;;;;;;13.86;51.68;98865.13;4303784;33;33643;-89
2024/04/03 07:34:11;;;;;;;5.15;2.15;;;;;;;14.48;49.92;98874.28;4304533;33;34333;-86
2024/04/03 07:36:38;;;;;;;5.40;2.42;;;;;;;14.31;50.65;98876.16;4302675;33;34212;-86
2024/04/03 07:39:05;;;;;;;5.30;1.83;;;;;;;14.36;50.67;98883.06;4316105;33;33893;-86
2024/04/03 07:41:32;;;;;;;6.47;1.98;;;;;;;14.61;50.63;98888.13;4317404;33;33498;-87
2024/04/03 07:43:59;;;;;;;4.72;1.98;;;;;;;14.66;52.57;98880.25;4309271;33;34662;-88
2024/04/03 07:46:27;;;;;;;8.55;2.50;;;;;;;14.65;53.53;98879.38;4306025;33;33897;-86
2024/04/03 07:48:53;;;;;;;6.87;2.17;;;;;;;14.54;54.19;98876.88;4314199;33;33030;-86
2024/04/03 07:51:20;;;;;;;5.32;1.87;;;;;;;14.87;54.06;98885.28;4312681;33;32890;-86
2024/04/03 07:53:46;;;;;;;6.15;2.33;;;;;;;14.95;53.52;98870.44;4314050;33;33993;-85
2024/04/03 07:56:13;;;;;;;4.45;2.03;;;;;;;14.62;53.87;98871.59;4315477;33;34066;-86
2024/04/03 07:58:41;;;;;;;5.72;1.77;;;;;;;15.28;51.71;98870.97;4317875;33;33757;-85
2024/04/03 08:01:08;;;;;;;7.05;1.83;;;;;;;15.39;52.14;98871.72;4300645;33;34197;-86
2024/04/03 08:03:37;;;;;;;6.50;1.73;;;;;;;15.66;50.98;98864.47;4295027;33;33486;-87
2024/04/03 08:06:05;;;;;;;4.80;1.87;;;;;;;15.73;50.86;98868.72;4302232;33;34038;-86
2024/04/03 08:08:32;;;;;;;4.65;2.05;;;;;;;15.64;51.45;98874.03;4297238;33;33315;-86
2024/04/03 08:11:02;;;;;;;5.85;1.90;;;;;;;15.51;51.93;98875.94;4298393;33;34173;-88
2024/04/03 08:13:30;;;;;;;5.12;2.08;;;;;;;16.04;50.82;98880.50;4289466;33;34691;-86
2024/04/03 08:16:04;;;;;;;3.15;1.60;;;;;;;15.82;52.07;98872.06;4309605;33;33819;-88
2024/04/03 08:18:32;;;;;;;4.53;1.70;;;;;;;16.35;49.59;98859.13;4306051;33;33903;-85
2024/04/03 08:21:01;;;;;;;4.57;1.35;;;;;;;16.29;49.28;98867.94;4309311;33;33600;-87
2024/04/03 08:23:27;;;;;;;5.00;1.50;;;;;;;16.51;47.99;98871.06;4296023;33;33579;-87
2024/04/03 08:25:54;;;;;;;3.15;1.12;;;;;;;16.53;47.87;98869.31;4296783;33;34114;-86
2024/04/03 08:28:21;;;;;;;2.60;1.02;;;;;;;16.84;46.41;98878.44;4312123;33;33653;-88
2024/04/03 08:30:47;;;;;;;3.67;1.37;;;;;;;16.60;45.20;98866.59;4312939;33;34457;-88
2024/04/03 08:33:14;;;;;;;4.10;1.42;;;;;;;16.49;45.92;98872.00;4314436;33;33490;-88
2024/04/03 08:35:40;;;;;;;3.87;1.50;;;;;;;16.24;47.04;98876.72;4315524;33;34238;-86
2024/04/03 08:38:07;;;;;;;3.08;0.90;;;;;;;16.35;46.91;98860.88;4303099;33;34139;-88
2024/04/03 08:40:34;;;;;;;3.58;1.02;;;;;;;16.84;45.41;98860.97;4312199;33;33199;-86
2024/04/03 08:43:00;;;;;;;4.47;0.90;;;;;;;16.97;44.21;98862.50;4321771;33;34466;-87
2024/04/03 08:45:27;;;;;;;2.50;1.10;;;;;;;16.82;43.75;98860.16;4315759;33;34618;-85
2024/04/03 08:47:54;;;;;;;2.15;0.90;;;;;;;17.20;42.03;98856.84;4310058;33;33910;-87
2024/04/03 08:50:21;;;;;;;5.72;1.30;;;;;;;17.04;40.82;98860.59;4294348;33;36123;-85
2024/04/03 08:52:48;;;;;;;2.62;1.00;;;;;;;16.66;43.89;98853.38;4311091;33;34559;-86
2024/04/03 08:55:15;;;;;;;3.78;1.15;;;;;;;16.53;46.19;98848.38;4305905;33;35003;-85
2024/04/03 08:57:41;;;;;;;2.33;1.02;;;;;;;17.06;45.43;98857.97;4319750;33;34495;-85
2024/04/03 09:00:08;;;;;;;4.40;0.80;;;;;;;17.34;45.34;98853.94;4315052;33;33511;-85
2024/04/03 09:02:35;;;;;;;4.87;0.73;;;;;;;17.39;40.50;98846.84;4313145;33;33307;-86
2024/04/03 09:05:03;;;;;;;1.77;0.60;;;;;;;17.50;38.24;98828.25;4318506;33;34713;-86
2024/04/03 09:07:29;;;;;;;2.47;0.70;;;;;;;17.88;38.00;98832.75;4290594;33;33164;-86
2024/04/03 09:09:57;;;;;;;2.30;0.70;;;;;;;17.66;38.30;98834.06;4296743;33;34319;-86
2024/04/03 09:12:24;;;;;;;3.03;0.95;;;;;;;17.89;37.38;98831.84;4299719;33;34499;-87
2024/04/03 09:15:06;;;;;;;2.87;0.95;;;;;;;17.36;40.35;98841.66;4304599;33;34115;-88
2024/04/03 09:17:33;;;;;;;3.60;1.25;;;;;;;17.47;42.23;98829.22;4306079;33;33985;-86
2024/04/03 09:19:59;;;;;;;2.53;1.10;;;;;;;17.63;42.25;98836.75;4309125;33;33537;-88
2024/04/03 09:22:26;;;;;;;3.22;0.90;;;;;;;17.83;41.95;98831.12;4313042;33;33710;-87
2024/04/03 09:24:53;;;;;;;3.15;0.70;;;;;;;18.07;41.34;98816.56;4301710;33;33940;-89
2024/04/03 09:27:38;;;;;;;2.78;0.75;;;;;;;17.55;40.38;98817.72;4298022;33;34064;-87
2024/04/03 09:30:06;;;;;;;2.90;0.82;;;;;;;17.97;40.23;98819.41;4306553;33;33576;-87
2024/04/03 09:32:33;;;;;;;2.60;0.60;;;;;;;18.36;39.97;98819.37;4302695;33;33530;-87
2024/04/03 09:34:59;;;;;;;2.90;0.80;;;;;;;18.62;38.49;98823.12;4305368;33;34867;-88
2024/04/03 09:37:27;;;;;;;2.20;0.73;;;;;;;18.74;36.63;98809.72;4316025;33;34626;-86
2024/04/03 09:39:55;;;;;;;2.58;1.10;;;;;;;18.59;36.82;98805.69;4290850;33;33497;-86
2024/04/03 09:42:22;;;;;;;4.65;0.90;;;;;;;18.66;37.10;98806.38;4317748;33;35489;-86
2024/04/03 09:45:05;;;;;;;1.75;0.80;;;;;;;18.78;36.46;98806.09;4289038;33;33993;-87
2024/04/03 09:47:33;;;;;;;3.35;0.75;;;;;;;18.18;37.80;98811.94;4331010;33;34204;-88
2024/04/03 09:50:01;;;;;;;4.28;0.75;;;;;;;17.63;37.97;98798.28;4305487;33;33016;-89
2024/04/03 09:52:28;;;;;;;2.72;0.70;;;;;;;18.52;37.16;98798.84;4308467;33;34860;-89
2024/04/03 09:54:56;;;;;;;1.55;0.52;;;;;;;18.61;34.76;98805.66;4332090;33;35070;-89
2024/04/03 09:57:23;;;;;;;2.62;0.60;;;;;;;18.46;34.82;98792.00;4329872;33;33951;-90
2024/04/03 09:59:50;;;;;;;3.50;1.00;;;;;;;18.70;34.90;98801.03;4316839;33;32127;-88
2024/04/03 10:02:17;;;;;;;3.40;0.70;;;;;;;18.81;35.84;98800.78;4305959;33;33939;-88
2024/04/03 10:04:44;;;;;;;1.90;0.55;;;;;;;18.83;34.22;98785.84;4306213;33;34060;-87
2024/04/03 10:07:22;;;;;;;3.22;0.68;;;;;;;19.06;33.45;98787.00;4295402;33;33076;-92
2024/04/03 10:09:52;;;;;;;3.22;0.70;;;;;;;19.24;31.83;98769.81;4306274;33;33125;-89
2024/04/03 10:12:21;;;;;;;2.95;0.62;;;;;;;19.32;31.83;98768.72;4307385;33;34764;-86
2024/04/03 10:14:57;;;;;;;3.60;0.60;;;;;;;19.61;31.54;98774.87;4302805;33;34023;-87
2024/04/03 10:17:26;;;;;;;1.27;0.40;;;;;;;19.81;31.06;98771.66;4302522;33;33982;-85
2024/04/03 10:19:59;;;;;;;3.12;0.60;;;;;;;19.67;30.13;98764.22;4314200;33;33297;-89
2024/04/03 10:22:29;;;;;;;2.05;0.50;;;;;;;19.56;29.74;98753.13;4316162;33;34087;-86
2024/04/03 10:24:55;;;;;;;2.42;0.60;;;;;;;19.80;30.50;98764.69;4310311;33;34219;-84
2024/04/03 10:27:22;;;;;;;1.40;0.57;;;;;;;19.96;31.11;98765.91;4307282;33;34104;-85
2024/04/03 10:30:06;;;;;;;1.58;0.47;;;;;;;20.20;29.87;98769.53;4315904;33;33624;-86
2024/04/03 10:32:33;;;;;;;3.12;0.52;;;;;;;19.96;29.84;98768.53;4315707;33;33827;-85
2024/04/03 10:35:00;;;;;;;2.62;0.50;;;;;;;19.74;29.45;98768.38;4311891;33;33706;-88
2024/04/03 10:37:26;;;;;;;1.90;0.50;;;;;;;19.67;29.66;98770.31;4312054;33;33968;-91
2024/04/03 10:39:52;;;;;;;2.45;0.57;;;;;;;19.54;29.62;98774.19;4289077;33;34221;-85
2024/04/03 10:42:19;;;;;;;2.00;0.50;;;;;;;20.07;28.81;98762.94;4315663;33;32993;-86
2024/04/03 10:44:46;;;;;;;1.58;0.60;;;;;;;19.96;30.55;98758.00;4315161;33;34184;-85
2024/04/03 10:47:13;;;;;;;2.55;0.70;;;;;;;19.97;31.88;98751.00;4315586;33;34531;-87
2024/04/03 10:49:41;;;;;;;2.87;0.57;;;;;;;19.82;31.48;98755.84;4303658;33;32693;-85
2024/04/03 10:52:07;;;;;;;2.30;0.70;;;;;;;20.10;30.66;98750.53;4319882;33;33852;-88
2024/04/03 10:54:34;;;;;;;3.03;0.60;;;;;;;20.12;32.12;98750.50;4304020;33;34282;-86
2024/04/03 10:57:02;;;;;;;2.20;0.50;;;;;;;20.07;31.31;98755.03;4315383;33;34090;-87
2024/04/03 10:59:29;;;;;;;2.83;0.50;;;;;;;19.99;31.59;98747.41;4292022;33;33618;-89
2024/04/03 11:01:56;;;;;;;1.87;0.40;;;;;;;19.81;33.03;98745.34;4303928;33;33538;-87
2024/04/03 11:04:26;;;;;;;1.45;0.40;;;;;;;20.10;31.73;98744.44;4316381;33;34979;-86
2024/04/03 11:06:53;;;;;;;2.40;0.55;;;;;;;19.97;30.64;98732.59;4317138;33;34538;-87
2024/04/03 11:09:19;;;;;;;3.25;0.60;;;;;;;19.85;31.55;98736.44;4292006;33;32501;-87
2024/04/03 11:11:52;;;;;;;2.05;0.60;;;;;;;20.13;32.34;98747.81;4317048;33;33628;-86
2024/04/03 11:14:23;;;;;;;3.08;0.80;;;;;;;20.39;30.97;98738.22;4301385;33;33830;-85
2024/04/03 11:16:51;;;;;;;3.08;0.60;;;;;;;20.27;31.33;98728.09;4289348;33;34648;-87
2024/04/03 11:19:18;;;;;;;3.58;0.60;;;;;;;20.03;32.47;98735.00;4302793;33;33488;-87
2024/04/03 11:21:44;;;;;;;2.58;0.60;;;;;;;19.91;32.70;98729.22;4306271;33;34766;-83
2024/04/03 11:24:12;;;;;;;3.30;0.65;;;;;;;20.15;33.41;98724.06;4308772;33;33510;-85
2024/04/03 11:26:42;;;;;;;3.92;0.65;;;;;;;19.79;33.40;98713.84;4303960;33;33772;-84
2024/04/03 11:29:25;;;;;;;4.37;0.80;;;;;;;20.13;34.92;98723.28;4295599;33;34192;-83
2024/04/03 11:31:52;;;;;;;2.90;0.80;;;;;;;20.18;33.14;98716.06;4307869;33;32314;-85
2024/04/03 11:34:19;;;;;;;3.78;0.68;;;;;;;19.83;33.61;98707.56;4302342;33;34179;-89
2024/04/03 11:36:46;;;;;;;3.00;0.60;;;;;;;19.68;34.35;98700.16;4302774;33;34749;-84
2024/04/03 11:39:17;;;;;;;3.20;0.70;;;;;;;20.00;35.13;98703.53;4306505;33;33628;-85